sensor_id;sensor_type;location;lat;lon;timestamp;P1;durP1;ratioP1;P2;durP2;ratioP2
27367;SDS011;14839;48.106;11.618;2024-02-04T05:01:57;1.30;;;0.90;;
27367;SDS011;14839;48.106;11.618;2024-02-04T05:04:23;0.90;;;0.80;;
27367;SDS011;14839;48.106;11.618;2024-02-04T05:06:50;3.73;;;0.97;;
27367;SDS011;14839;48.106;11.618;2024-02-04T05:09:16;2.03;;;0.80;;
27367;SDS011;14839;48.106;11.618;2024-02-04T05:11:41;1.23;;;1.00;;
27367;SDS011;14839;48.106;11.618;2024-02-04T05:14:07;1.87;;;0.93;;
27367;SDS011;14839;48.106;11.618;2024-02-04T05:16:33;2.40;;;1.00;;
27367;SDS011;14839;48.106;11.618;2024-02-04T05:18:58;1.83;;;0.70;;
27367;SDS011;14839;48.106;11.618;2024-02-04T05:21:24;2.77;;;1.17;;
27367;SDS011;14839;48.106;11.618;2024-02-04T05:23:49;1.67;;;1.07;;
27367;SDS011;14839;48.106;11.618;2024-02-04T05:26:18;1.60;;;1.20;;
27367;SDS011;14839;48.106;11.618;2024-02-04T05:28:44;0.80;;;0.70;;
27367;SDS011;14839;48.106;11.618;2024-02-04T05:31:09;1.50;;;1.10;;
27367;SDS011;14839;48.106;11.618;2024-02-04T05:33:35;3.37;;;1.03;;
27367;SDS011;14839;48.106;11.618;2024-02-04T05:36:00;2.57;;;1.30;;
27367;SDS011;14839;48.106;11.618;2024-02-04T05:38:26;1.53;;;1.00;;
27367;SDS011;14839;48.106;11.618;2024-02-04T05:40:52;2.27;;;0.90;;
27367;SDS011;14839;48.106;11.618;2024-02-04T05:43:17;1.60;;;0.90;;
27367;SDS011;14839;48.106;11.618;2024-02-04T05:45:43;3.03;;;1.37;;
27367;SDS011;14839;48.106;11.618;2024-02-04T05:48:09;5.10;;;1.10;;
27367;SDS011;14839;48.106;11.618;2024-02-04T05:50:35;3.10;;;1.27;;
27367;SDS011;14839;48.106;11.618;2024-02-04T05:53:00;1.70;;;1.00;;
27367;SDS011;14839;48.106;11.618;2024-02-04T05:55:26;1.93;;;1.53;;
27367;SDS011;14839;48.106;11.618;2024-02-04T05:57:52;2.03;;;1.13;;
27367;SDS011;14839;48.106;11.618;2024-02-04T06:00:18;1.63;;;0.90;;
27367;SDS011;14839;48.106;11.618;2024-02-04T06:02:43;1.40;;;1.30;;
27367;SDS011;14839;48.106;11.618;2024-02-04T06:05:09;2.43;;;1.00;;
27367;SDS011;14839;48.106;11.618;2024-02-04T06:07:36;2.43;;;1.50;;
27367;SDS011;14839;48.106;11.618;2024-02-04T06:10:02;2.30;;;1.43;;
27367;SDS011;14839;48.106;11.618;2024-02-04T06:12:28;1.53;;;1.13;;
27367;SDS011;14839;48.106;11.618;2024-02-04T06:14:54;2.23;;;1.40;;
27367;SDS011;14839;48.106;11.618;2024-02-04T06:17:20;2.97;;;1.47;;
27367;SDS011;14839;48.106;11.618;2024-02-04T06:19:45;1.40;;;1.27;;
27367;SDS011;14839;48.106;11.618;2024-02-04T06:22:11;1.70;;;0.93;;
27367;SDS011;14839;48.106;11.618;2024-02-04T06:24:37;1.70;;;1.00;;
27367;SDS011;14839;48.106;11.618;2024-02-04T06:27:04;2.13;;;1.03;;
27367;SDS011;14839;48.106;11.618;2024-02-04T06:29:29;1.37;;;1.07;;
27367;SDS011;14839;48.106;11.618;2024-02-04T06:31:55;1.53;;;1.23;;
27367;SDS011;14839;48.106;11.618;2024-02-04T06:34:21;1.60;;;1.10;;
27367;SDS011;14839;48.106;11.618;2024-02-04T06:36:46;3.53;;;1.40;;
27367;SDS011;14839;48.106;11.618;2024-02-04T06:39:12;3.13;;;1.43;;
27367;SDS011;14839;48.106;11.618;2024-02-04T06:41:38;1.47;;;1.30;;
27367;SDS011;14839;48.106;11.618;2024-02-04T06:44:04;1.67;;;1.20;;
27367;SDS011;14839;48.106;11.618;2024-02-04T06:46:30;3.07;;;1.47;;
27367;SDS011;14839;48.106;11.618;2024-02-04T06:48:56;1.83;;;1.30;;
27367;SDS011;14839;48.106;11.618;2024-02-04T06:51:22;2.77;;;1.27;;
27367;SDS011;14839;48.106;11.618;2024-02-04T06:53:47;2.20;;;1.33;;
27367;SDS011;14839;48.106;11.618;2024-02-04T06:56:13;1.93;;;0.97;;
27367;SDS011;14839;48.106;11.618;2024-02-04T06:58:39;2.13;;;1.43;;
27367;SDS011;14839;48.106;11.618;2024-02-04T07:01:05;2.87;;;1.50;;
27367;SDS011;14839;48.106;11.618;2024-02-04T07:03:31;4.50;;;1.60;;
27367;SDS011;14839;48.106;11.618;2024-02-04T07:05:57;2.47;;;1.30;;
27367;SDS011;14839;48.106;11.618;2024-02-04T07:08:24;4.23;;;1.43;;
27367;SDS011;14839;48.106;11.618;2024-02-04T07:10:50;1.83;;;1.23;;
27367;SDS011;14839;48.106;11.618;2024-02-04T07:13:16;3.77;;;1.60;;
27367;SDS011;14839;48.106;11.618;2024-02-04T07:15:42;2.93;;;1.97;;
27367;SDS011;14839;48.106;11.618;2024-02-04T07:18:07;2.67;;;1.83;;
27367;SDS011;14839;48.106;11.618;2024-02-04T07:20:33;8.90;;;2.40;;
27367;SDS011;14839;48.106;11.618;2024-02-04T07:22:59;6.33;;;1.60;;
27367;SDS011;14839;48.106;11.618;2024-02-04T07:25:24;4.00;;;2.10;;
27367;SDS011;14839;48.106;11.618;2024-02-04T07:27:50;3.73;;;2.27;;
27367;SDS011;14839;48.106;11.618;2024-02-04T07:30:16;4.37;;;2.30;;
27367;SDS011;14839;48.106;11.618;2024-02-04T07:32:42;4.07;;;2.10;;
27367;SDS011;14839;48.106;11.618;2024-02-04T07:35:08;4.50;;;2.67;;
27367;SDS011;14839;48.106;11.618;2024-02-04T07:37:35;4.30;;;2.80;;
27367;SDS011;14839;48.106;11.618;2024-02-04T07:40:00;4.60;;;2.70;;
27367;SDS011;14839;48.106;11.618;2024-02-04T07:42:29;3.80;;;2.07;;
27367;SDS011;14839;48.106;11.618;2024-02-04T07:44:55;4.83;;;2.33;;
27367;SDS011;14839;48.106;11.618;2024-02-04T07:47:20;3.60;;;2.40;;
27367;SDS011;14839;48.106;11.618;2024-02-04T07:49:47;3.33;;;2.10;;
27367;SDS011;14839;48.106;11.618;2024-02-04T07:52:13;6.33;;;2.50;;
27367;SDS011;14839;48.106;11.618;2024-02-04T07:54:38;5.50;;;2.57;;
27367;SDS011;14839;48.106;11.618;2024-02-04T07:57:04;7.90;;;2.73;;
27367;SDS011;14839;48.106;11.618;2024-02-04T07:59:30;3.63;;;2.13;;
27367;SDS011;14839;48.106;11.618;2024-02-04T08:01:55;4.97;;;2.23;;
27367;SDS011;14839;48.106;11.618;2024-02-04T08:04:21;2.57;;;1.73;;
27367;SDS011;14839;48.106;11.618;2024-02-04T08:06:47;5.63;;;2.60;;
27367;SDS011;14839;48.106;11.618;2024-02-04T08:09:12;6.17;;;2.47;;
27367;SDS011;14839;48.106;11.618;2024-02-04T08:15:01;8.43;;;2.33;;
27367;SDS011;14839;48.106;11.618;2024-02-04T08:17:27;5.40;;;2.23;;
27367;SDS011;14839;48.106;11.618;2024-02-04T08:19:55;6.20;;;2.10;;
27367;SDS011;14839;48.106;11.618;2024-02-04T08:22:24;7.63;;;1.83;;
27367;SDS011;14839;48.106;11.618;2024-02-04T08:24:49;3.20;;;2.00;;
27367;SDS011;14839;48.106;11.618;2024-02-04T08:27:16;4.33;;;1.90;;
27367;SDS011;14839;48.106;11.618;2024-02-04T08:29:43;2.33;;;1.30;;
27367;SDS011;14839;48.106;11.618;2024-02-04T08:32:08;2.80;;;2.00;;
27367;SDS011;14839;48.106;11.618;2024-02-04T08:34:34;2.93;;;1.83;;
27367;SDS011;14839;48.106;11.618;2024-02-04T08:37:00;3.90;;;1.53;;
27367;SDS011;14839;48.106;11.618;2024-02-04T08:39:25;2.90;;;1.40;;
27367;SDS011;14839;48.106;11.618;2024-02-04T08:41:51;1.90;;;1.23;;
27367;SDS011;14839;48.106;11.618;2024-02-04T08:44:17;3.57;;;1.47;;
27367;SDS011;14839;48.106;11.618;2024-02-04T08:46:42;1.77;;;1.20;;
27367;SDS011;14839;48.106;11.618;2024-02-04T08:49:08;7.33;;;1.50;;
27367;SDS011;14839;48.106;11.618;2024-02-04T08:51:34;2.50;;;1.57;;
27367;SDS011;14839;48.106;11.618;2024-02-04T08:53:59;3.07;;;1.70;;
27367;SDS011;14839;48.106;11.618;2024-02-04T08:56:25;3.77;;;1.67;;
27367;SDS011;14839;48.106;11.618;2024-02-04T08:58:50;4.57;;;1.97;;
27367;SDS011;14839;48.106;11.618;2024-02-04T09:01:16;2.33;;;1.33;;
27367;SDS011;14839;48.106;11.618;2024-02-04T09:03:42;4.90;;;1.50;;
27367;SDS011;14839;48.106;11.618;2024-02-04T09:06:07;2.30;;;1.40;;
27367;SDS011;14839;48.106;11.618;2024-02-04T09:08:33;4.80;;;1.60;;
27367;SDS011;14839;48.106;11.618;2024-02-04T09:10:58;4.20;;;1.80;;
27367;SDS011;14839;48.106;11.618;2024-02-04T09:13:24;2.63;;;1.37;;
27367;SDS011;14839;48.106;11.618;2024-02-04T09:15:50;4.23;;;1.50;;
27367;SDS011;14839;48.106;11.618;2024-02-04T09:18:16;6.53;;;1.90;;
27367;SDS011;14839;48.106;11.618;2024-02-04T09:20:41;2.73;;;1.50;;
27367;SDS011;14839;48.106;11.618;2024-02-04T09:23:07;5.93;;;2.20;;
27367;SDS011;14839;48.106;11.618;2024-02-04T09:25:32;4.77;;;1.40;;
27367;SDS011;14839;48.106;11.618;2024-02-04T09:27:58;3.67;;;1.50;;
27367;SDS011;14839;48.106;11.618;2024-02-04T09:30:24;4.73;;;1.47;;
27367;SDS011;14839;48.106;11.618;2024-02-04T09:32:49;2.17;;;1.53;;
27367;SDS011;14839;48.106;11.618;2024-02-04T09:35:15;2.70;;;1.20;;
27367;SDS011;14839;48.106;11.618;2024-02-04T09:37:41;2.73;;;1.60;;
27367;SDS011;14839;48.106;11.618;2024-02-04T09:40:08;4.63;;;1.70;;
27367;SDS011;14839;48.106;11.618;2024-02-04T09:42:34;5.50;;;1.83;;
27367;SDS011;14839;48.106;11.618;2024-02-04T09:45:00;6.53;;;2.10;;
27367;SDS011;14839;48.106;11.618;2024-02-04T09:47:26;4.20;;;1.80;;
27367;SDS011;14839;48.106;11.618;2024-02-04T09:49:53;6.03;;;1.73;;
27367;SDS011;14839;48.106;11.618;2024-02-04T09:52:21;5.10;;;2.10;;
27367;SDS011;14839;48.106;11.618;2024-02-04T09:54:59;3.30;;;1.90;;
27367;SDS011;14839;48.106;11.618;2024-02-04T09:57:31;3.33;;;2.07;;
27367;SDS011;14839;48.106;11.618;2024-02-04T09:59:58;2.30;;;1.70;;
27367;SDS011;14839;48.106;11.618;2024-02-04T10:02:24;2.27;;;1.43;;
27367;SDS011;14839;48.106;11.618;2024-02-04T10:04:50;5.70;;;2.07;;
27367;SDS011;14839;48.106;11.618;2024-02-04T10:07:16;4.43;;;1.70;;
27367;SDS011;14839;48.106;11.618;2024-02-04T10:09:43;4.20;;;1.40;;
27367;SDS011;14839;48.106;11.618;2024-02-04T10:12:09;3.43;;;1.60;;
27367;SDS011;14839;48.106;11.618;2024-02-04T10:14:35;4.03;;;2.00;;
27367;SDS011;14839;48.106;11.618;2024-02-04T10:17:01;3.30;;;1.87;;
27367;SDS011;14839;48.106;11.618;2024-02-04T10:19:26;3.13;;;1.50;;
27367;SDS011;14839;48.106;11.618;2024-02-04T10:22:02;5.23;;;1.50;;
27367;SDS011;14839;48.106;11.618;2024-02-04T10:24:28;1.97;;;1.20;;
27367;SDS011;14839;48.106;11.618;2024-02-04T10:26:55;3.93;;;1.73;;
27367;SDS011;14839;48.106;11.618;2024-02-04T10:29:21;4.93;;;1.83;;
27367;SDS011;14839;48.106;11.618;2024-02-04T10:31:59;2.93;;;1.83;;
27367;SDS011;14839;48.106;11.618;2024-02-04T10:34:26;2.80;;;1.83;;
27367;SDS011;14839;48.106;11.618;2024-02-04T10:36:52;1.97;;;1.37;;
27367;SDS011;14839;48.106;11.618;2024-02-04T10:39:18;4.40;;;1.67;;
27367;SDS011;14839;48.106;11.618;2024-02-04T10:41:51;2.73;;;1.40;;
27367;SDS011;14839;48.106;11.618;2024-02-04T10:44:20;2.43;;;1.57;;
27367;SDS011;14839;48.106;11.618;2024-02-04T10:46:47;2.27;;;1.00;;
27367;SDS011;14839;48.106;11.618;2024-02-04T10:49:14;1.10;;;1.00;;
27367;SDS011;14839;48.106;11.618;2024-02-04T10:51:41;2.10;;;1.20;;
27367;SDS011;14839;48.106;11.618;2024-02-04T10:54:07;2.30;;;1.37;;
27367;SDS011;14839;48.106;11.618;2024-02-04T10:56:42;2.30;;;1.27;;
27367;SDS011;14839;48.106;11.618;2024-02-04T10:59:16;1.87;;;1.27;;
27367;SDS011;14839;48.106;11.618;2024-02-04T11:01:45;3.23;;;1.23;;
27367;SDS011;14839;48.106;11.618;2024-02-04T11:04:13;1.87;;;1.30;;
27367;SDS011;14839;48.106;11.618;2024-02-04T11:06:42;3.63;;;1.30;;
27367;SDS011;14839;48.106;11.618;2024-02-04T11:09:09;2.63;;;1.10;;
27367;SDS011;14839;48.106;11.618;2024-02-04T11:11:37;4.43;;;3.43;;
27367;SDS011;14839;48.106;11.618;2024-02-04T11:14:04;4.60;;;2.83;;
27367;SDS011;14839;48.106;11.618;2024-02-04T11:19:32;1.07;;;0.93;;
27367;SDS011;14839;48.106;11.618;2024-02-04T11:27:34;0.67;;;0.67;;
27367;SDS011;14839;48.106;11.618;2024-02-04T11:29:59;2.00;;;1.23;;
27367;SDS011;14839;48.106;11.618;2024-02-04T11:32:26;2.00;;;1.30;;
27367;SDS011;14839;48.106;11.618;2024-02-04T11:34:52;0.87;;;0.70;;
27367;SDS011;14839;48.106;11.618;2024-02-04T11:37:20;1.47;;;0.87;;
27367;SDS011;14839;48.106;11.618;2024-02-04T11:39:49;2.00;;;1.20;;
27367;SDS011;14839;48.106;11.618;2024-02-04T11:42:16;6.27;;;1.17;;
27367;SDS011;14839;48.106;11.618;2024-02-04T11:44:42;1.10;;;0.97;;
27367;SDS011;14839;48.106;11.618;2024-02-04T11:47:08;1.37;;;0.77;;
27367;SDS011;14839;48.106;11.618;2024-02-04T11:49:34;1.30;;;0.80;;
27367;SDS011;14839;48.106;11.618;2024-02-04T11:51:59;0.93;;;0.70;;
27367;SDS011;14839;48.106;11.618;2024-02-04T11:54:25;2.70;;;0.70;;
27367;SDS011;14839;48.106;11.618;2024-02-04T11:56:51;2.80;;;1.03;;
27367;SDS011;14839;48.106;11.618;2024-02-04T11:59:18;0.87;;;0.77;;
27367;SDS011;14839;48.106;11.618;2024-02-04T12:01:46;0.90;;;0.60;;
27367;SDS011;14839;48.106;11.618;2024-02-04T12:04:13;2.03;;;0.83;;
27367;SDS011;14839;48.106;11.618;2024-02-04T12:06:41;2.70;;;0.50;;
27367;SDS011;14839;48.106;11.618;2024-02-04T12:09:07;1.83;;;0.70;;
27367;SDS011;14839;48.106;11.618;2024-02-04T12:11:34;1.30;;;0.60;;
27367;SDS011;14839;48.106;11.618;2024-02-04T12:14:01;2.27;;;1.00;;
27367;SDS011;14839;48.106;11.618;2024-02-04T12:16:32;0.83;;;0.50;;
27367;SDS011;14839;48.106;11.618;2024-02-04T12:19:00;3.73;;;1.20;;
27367;SDS011;14839;48.106;11.618;2024-02-04T12:21:28;3.03;;;0.63;;
27367;SDS011;14839;48.106;11.618;2024-02-04T12:23:54;4.80;;;0.90;;
27367;SDS011;14839;48.106;11.618;2024-02-04T12:26:20;1.47;;;0.80;;
27367;SDS011;14839;48.106;11.618;2024-02-04T12:28:47;0.63;;;0.50;;
27367;SDS011;14839;48.106;11.618;2024-02-04T12:31:20;0.77;;;0.57;;
27367;SDS011;14839;48.106;11.618;2024-02-04T12:33:56;0.77;;;0.60;;
27367;SDS011;14839;48.106;11.618;2024-02-04T12:36:32;1.77;;;0.63;;
27367;SDS011;14839;48.106;11.618;2024-02-04T12:38:59;1.83;;;0.47;;
27367;SDS011;14839;48.106;11.618;2024-02-04T12:41:26;2.73;;;0.47;;
27367;SDS011;14839;48.106;11.618;2024-02-04T12:43:53;2.27;;;0.80;;
27367;SDS011;14839;48.106;11.618;2024-02-04T12:46:20;0.93;;;0.73;;
27367;SDS011;14839;48.106;11.618;2024-02-04T12:54:28;1.33;;;1.10;;
27367;SDS011;14839;48.106;11.618;2024-02-04T12:56:51;4.03;;;1.30;;
27367;SDS011;14839;48.106;11.618;2024-02-04T12:59:24;1.90;;;0.90;;
27367;SDS011;14839;48.106;11.618;2024-02-04T13:01:55;1.67;;;0.60;;
27367;SDS011;14839;48.106;11.618;2024-02-04T13:04:21;4.47;;;0.90;;
27367;SDS011;14839;48.106;11.618;2024-02-04T13:06:47;0.97;;;0.70;;
27367;SDS011;14839;48.106;11.618;2024-02-04T13:09:16;3.93;;;0.60;;
27367;SDS011;14839;48.106;11.618;2024-02-04T13:11:42;1.93;;;0.77;;
27367;SDS011;14839;48.106;11.618;2024-02-04T13:14:08;2.50;;;0.70;;
27367;SDS011;14839;48.106;11.618;2024-02-04T13:16:34;0.80;;;0.70;;
27367;SDS011;14839;48.106;11.618;2024-02-04T13:19:03;1.73;;;0.70;;
27367;SDS011;14839;48.106;11.618;2024-02-04T13:21:29;3.80;;;0.83;;
27367;SDS011;14839;48.106;11.618;2024-02-04T13:23:55;6.30;;;0.70;;
27367;SDS011;14839;48.106;11.618;2024-02-04T13:26:21;4.97;;;1.10;;
27367;SDS011;14839;48.106;11.618;2024-02-04T13:28:47;0.83;;;0.70;;
27367;SDS011;14839;48.106;11.618;2024-02-04T13:31:13;1.30;;;0.60;;
27367;SDS011;14839;48.106;11.618;2024-02-04T13:33:39;1.57;;;0.70;;
27367;SDS011;14839;48.106;11.618;2024-02-04T13:36:06;1.23;;;0.70;;
27367;SDS011;14839;48.106;11.618;2024-02-04T13:38:32;6.77;;;0.80;;
27367;SDS011;14839;48.106;11.618;2024-02-04T13:40:58;1.47;;;0.90;;
27367;SDS011;14839;48.106;11.618;2024-02-04T13:43:24;1.20;;;0.63;;
27367;SDS011;14839;48.106;11.618;2024-02-04T13:45:49;0.60;;;0.53;;
27367;SDS011;14839;48.106;11.618;2024-02-04T13:48:15;1.10;;;0.60;;
27367;SDS011;14839;48.106;11.618;2024-02-04T13:50:41;5.60;;;0.70;;
27367;SDS011;14839;48.106;11.618;2024-02-04T13:53:09;1.63;;;0.73;;
27367;SDS011;14839;48.106;11.618;2024-02-04T13:55:36;2.77;;;0.73;;
27367;SDS011;14839;48.106;11.618;2024-02-04T13:58:02;2.07;;;1.03;;
27367;SDS011;14839;48.106;11.618;2024-02-04T14:00:28;1.87;;;0.87;;
27367;SDS011;14839;48.106;11.618;2024-02-04T14:02:54;1.77;;;0.50;;
27367;SDS011;14839;48.106;11.618;2024-02-04T14:05:19;0.50;;;0.50;;
27367;SDS011;14839;48.106;11.618;2024-02-04T14:07:45;3.33;;;0.90;;
27367;SDS011;14839;48.106;11.618;2024-02-04T14:10:11;1.70;;;0.67;;
27367;SDS011;14839;48.106;11.618;2024-02-04T14:12:39;0.83;;;0.70;;
27367;SDS011;14839;48.106;11.618;2024-02-04T14:15:06;3.07;;;0.77;;
27367;SDS011;14839;48.106;11.618;2024-02-04T14:17:32;4.87;;;1.20;;
27367;SDS011;14839;48.106;11.618;2024-02-04T14:19:58;0.97;;;0.73;;
27367;SDS011;14839;48.106;11.618;2024-02-04T14:22:24;2.53;;;0.50;;
27367;SDS011;14839;48.106;11.618;2024-02-04T14:24:49;2.23;;;0.50;;
27367;SDS011;14839;48.106;11.618;2024-02-04T14:27:15;5.03;;;2.83;;
27367;SDS011;14839;48.106;11.618;2024-02-04T14:29:41;4.60;;;1.60;;
27367;SDS011;14839;48.106;11.618;2024-02-04T14:32:07;0.97;;;0.70;;
27367;SDS011;14839;48.106;11.618;2024-02-04T14:34:33;0.73;;;0.53;;
27367;SDS011;14839;48.106;11.618;2024-02-04T14:36:59;0.70;;;0.60;;
27367;SDS011;14839;48.106;11.618;2024-02-04T14:39:25;6.73;;;1.10;;
27367;SDS011;14839;48.106;11.618;2024-02-04T14:41:51;2.27;;;0.70;;
27367;SDS011;14839;48.106;11.618;2024-02-04T14:44:18;3.13;;;1.20;;
27367;SDS011;14839;48.106;11.618;2024-02-04T14:46:45;4.33;;;0.70;;
27367;SDS011;14839;48.106;11.618;2024-02-04T14:49:11;2.03;;;0.70;;
27367;SDS011;14839;48.106;11.618;2024-02-04T14:51:40;0.43;;;0.40;;
27367;SDS011;14839;48.106;11.618;2024-02-04T14:54:06;1.77;;;0.40;;
27367;SDS011;14839;48.106;11.618;2024-02-04T14:56:41;0.60;;;0.43;;
27367;SDS011;14839;48.106;11.618;2024-02-04T14:59:08;1.27;;;0.70;;
27367;SDS011;14839;48.106;11.618;2024-02-04T15:01:35;2.80;;;0.70;;
27367;SDS011;14839;48.106;11.618;2024-02-04T15:04:01;1.70;;;0.63;;
27367;SDS011;14839;48.106;11.618;2024-02-04T15:06:26;2.77;;;0.63;;
27367;SDS011;14839;48.106;11.618;2024-02-04T15:08:54;2.10;;;0.83;;
27367;SDS011;14839;48.106;11.618;2024-02-04T15:11:20;2.57;;;1.10;;
27367;SDS011;14839;48.106;11.618;2024-02-04T15:13:49;2.63;;;0.77;;
27367;SDS011;14839;48.106;11.618;2024-02-04T15:16:18;0.80;;;0.60;;
27367;SDS011;14839;48.106;11.618;2024-02-04T15:18:47;4.23;;;1.60;;
27367;SDS011;14839;48.106;11.618;2024-02-04T15:21:13;1.47;;;0.73;;
27367;SDS011;14839;48.106;11.618;2024-02-04T15:23:39;3.50;;;0.80;;
27367;SDS011;14839;48.106;11.618;2024-02-04T15:26:06;1.33;;;0.60;;
27367;SDS011;14839;48.106;11.618;2024-02-04T15:28:33;1.20;;;0.50;;
27367;SDS011;14839;48.106;11.618;2024-02-04T15:30:59;4.43;;;0.50;;
27367;SDS011;14839;48.106;11.618;2024-02-04T15:33:25;4.27;;;0.57;;
27367;SDS011;14839;48.106;11.618;2024-02-04T15:35:53;3.70;;;0.70;;
27367;SDS011;14839;48.106;11.618;2024-02-04T15:38:19;1.67;;;0.70;;
27367;SDS011;14839;48.106;11.618;2024-02-04T15:40:44;1.17;;;0.60;;
27367;SDS011;14839;48.106;11.618;2024-02-04T15:43:10;1.47;;;0.77;;
27367;SDS011;14839;48.106;11.618;2024-02-04T15:45:36;0.90;;;0.43;;
27367;SDS011;14839;48.106;11.618;2024-02-04T15:48:02;1.13;;;0.73;;
27367;SDS011;14839;48.106;11.618;2024-02-04T15:50:29;1.47;;;0.50;;
27367;SDS011;14839;48.106;11.618;2024-02-04T15:52:56;1.40;;;0.50;;
27367;SDS011;14839;48.106;11.618;2024-02-04T15:55:22;2.30;;;0.60;;
27367;SDS011;14839;48.106;11.618;2024-02-04T15:57:49;1.47;;;0.80;;
27367;SDS011;14839;48.106;11.618;2024-02-04T16:00:19;0.50;;;0.40;;
27367;SDS011;14839;48.106;11.618;2024-02-04T16:02:52;2.00;;;0.80;;
27367;SDS011;14839;48.106;11.618;2024-02-04T16:05:19;1.03;;;0.60;;
27367;SDS011;14839;48.106;11.618;2024-02-04T16:07:45;3.60;;;0.70;;
27367;SDS011;14839;48.106;11.618;2024-02-04T16:10:12;0.97;;;0.63;;
27367;SDS011;14839;48.106;11.618;2024-02-04T16:12:44;1.40;;;1.10;;
27367;SDS011;14839;48.106;11.618;2024-02-04T16:15:23;1.83;;;0.70;;
27367;SDS011;14839;48.106;11.618;2024-02-04T16:17:51;0.70;;;0.50;;
27367;SDS011;14839;48.106;11.618;2024-02-04T16:20:17;3.03;;;0.60;;
27367;SDS011;14839;48.106;11.618;2024-02-04T16:22:44;2.13;;;0.90;;
27367;SDS011;14839;48.106;11.618;2024-02-04T16:25:10;1.60;;;0.83;;
27367;SDS011;14839;48.106;11.618;2024-02-04T16:27:36;4.10;;;0.73;;
27367;SDS011;14839;48.106;11.618;2024-02-04T16:30:02;1.50;;;0.60;;
27367;SDS011;14839;48.106;11.618;2024-02-04T16:32:29;3.73;;;0.70;;
27367;SDS011;14839;48.106;11.618;2024-02-04T16:34:54;1.50;;;0.60;;
27367;SDS011;14839;48.106;11.618;2024-02-04T16:37:21;0.90;;;0.73;;
27367;SDS011;14839;48.106;11.618;2024-02-04T16:39:46;1.00;;;0.80;;
27367;SDS011;14839;48.106;11.618;2024-02-04T16:42:12;0.40;;;0.30;;
27367;SDS011;14839;48.106;11.618;2024-02-04T16:44:38;0.63;;;0.50;;
27367;SDS011;14839;48.106;11.618;2024-02-04T16:47:04;2.03;;;0.47;;
27367;SDS011;14839;48.106;11.618;2024-02-04T16:49:30;0.63;;;0.40;;
27367;SDS011;14839;48.106;11.618;2024-02-04T16:51:55;0.77;;;0.60;;
27367;SDS011;14839;48.106;11.618;2024-02-04T16:54:22;3.53;;;0.70;;
27367;SDS011;14839;48.106;11.618;2024-02-04T16:56:57;1.93;;;0.60;;
27367;SDS011;14839;48.106;11.618;2024-02-04T16:59:23;3.13;;;0.53;;
27367;SDS011;14839;48.106;11.618;2024-02-04T17:01:49;0.63;;;0.30;;
27367;SDS011;14839;48.106;11.618;2024-02-04T17:04:16;2.07;;;0.57;;
27367;SDS011;14839;48.106;11.618;2024-02-04T17:06:42;1.80;;;0.70;;
27367;SDS011;14839;48.106;11.618;2024-02-04T17:09:09;2.13;;;0.70;;
27367;SDS011;14839;48.106;11.618;2024-02-04T17:11:40;5.57;;;3.07;;
27367;SDS011;14839;48.106;11.618;2024-02-04T17:14:07;4.57;;;4.10;;
27367;SDS011;14839;48.106;11.618;2024-02-04T17:22:38;0.97;;;0.70;;
27367;SDS011;14839;48.106;11.618;2024-02-04T17:25:06;3.30;;;2.67;;
27367;SDS011;14839;48.106;11.618;2024-02-04T17:27:37;5.87;;;3.67;;
27367;SDS011;14839;48.106;11.618;2024-02-04T17:30:07;14.90;;;7.90;;
27367;SDS011;14839;48.106;11.618;2024-02-04T17:32:38;4.00;;;2.67;;
27367;SDS011;14839;48.106;11.618;2024-02-04T17:35:05;6.23;;;3.30;;
27367;SDS011;14839;48.106;11.618;2024-02-04T17:37:31;5.07;;;3.00;;
27367;SDS011;14839;48.106;11.618;2024-02-04T17:39:57;4.57;;;1.77;;
27367;SDS011;14839;48.106;11.618;2024-02-04T17:42:23;3.63;;;2.03;;
27367;SDS011;14839;48.106;11.618;2024-02-04T17:44:53;2.90;;;1.70;;
27367;SDS011;14839;48.106;11.618;2024-02-04T17:47:19;4.30;;;2.87;;
27367;SDS011;14839;48.106;11.618;2024-02-04T17:49:49;1.63;;;1.30;;
27367;SDS011;14839;48.106;11.618;2024-02-04T17:52:22;1.43;;;0.90;;
27367;SDS011;14839;48.106;11.618;2024-02-04T17:54:51;5.17;;;1.43;;
27367;SDS011;14839;48.106;11.618;2024-02-04T17:57:18;2.53;;;1.73;;
27367;SDS011;14839;48.106;11.618;2024-02-04T17:59:44;1.23;;;0.80;;
27367;SDS011;14839;48.106;11.618;2024-02-04T18:02:10;1.87;;;0.90;;
27367;SDS011;14839;48.106;11.618;2024-02-04T18:04:35;1.80;;;1.37;;
27367;SDS011;14839;48.106;11.618;2024-02-04T18:07:01;1.60;;;0.67;;
27367;SDS011;14839;48.106;11.618;2024-02-04T18:09:27;3.37;;;1.83;;
27367;SDS011;14839;48.106;11.618;2024-02-04T18:11:54;2.97;;;0.90;;
27367;SDS011;14839;48.106;11.618;2024-02-04T18:14:20;2.10;;;1.00;;
27367;SDS011;14839;48.106;11.618;2024-02-04T18:16:46;1.07;;;0.60;;
27367;SDS011;14839;48.106;11.618;2024-02-04T18:19:11;1.13;;;0.80;;
27367;SDS011;14839;48.106;11.618;2024-02-04T18:21:37;2.47;;;0.50;;
27367;SDS011;14839;48.106;11.618;2024-02-04T18:24:03;1.40;;;0.73;;
27367;SDS011;14839;48.106;11.618;2024-02-04T18:26:32;1.50;;;0.80;;
27367;SDS011;14839;48.106;11.618;2024-02-04T18:28:58;2.27;;;1.40;;
27367;SDS011;14839;48.106;11.618;2024-02-04T18:31:25;3.90;;;1.33;;
27367;SDS011;14839;48.106;11.618;2024-02-04T18:33:52;2.40;;;1.33;;
27367;SDS011;14839;48.106;11.618;2024-02-04T18:36:18;3.90;;;1.00;;
27367;SDS011;14839;48.106;11.618;2024-02-04T18:38:50;1.13;;;0.90;;
27367;SDS011;14839;48.106;11.618;2024-02-04T18:41:16;2.10;;;1.03;;
27367;SDS011;14839;48.106;11.618;2024-02-04T18:43:43;3.80;;;2.33;;
27367;SDS011;14839;48.106;11.618;2024-02-04T18:46:10;1.87;;;1.00;;
27367;SDS011;14839;48.106;11.618;2024-02-04T18:48:36;1.10;;;0.77;;
27367;SDS011;14839;48.106;11.618;2024-02-04T18:51:02;2.97;;;1.03;;
27367;SDS011;14839;48.106;11.618;2024-02-04T18:53:29;2.43;;;0.83;;
27367;SDS011;14839;48.106;11.618;2024-02-04T18:55:54;0.93;;;0.70;;
27367;SDS011;14839;48.106;11.618;2024-02-04T18:58:24;2.50;;;0.63;;
27367;SDS011;14839;48.106;11.618;2024-02-04T19:00:51;1.10;;;0.70;;
27367;SDS011;14839;48.106;11.618;2024-02-04T19:03:18;2.60;;;1.17;;
27367;SDS011;14839;48.106;11.618;2024-02-04T19:05:43;2.40;;;0.50;;
27367;SDS011;14839;48.106;11.618;2024-02-04T19:08:10;0.80;;;0.73;;
27367;SDS011;14839;48.106;11.618;2024-02-04T19:10:35;1.13;;;0.77;;
27367;SDS011;14839;48.106;11.618;2024-02-04T19:13:01;0.93;;;0.70;;
27367;SDS011;14839;48.106;11.618;2024-02-04T19:15:28;3.87;;;1.77;;
27367;SDS011;14839;48.106;11.618;2024-02-04T19:17:54;1.60;;;1.10;;
27367;SDS011;14839;48.106;11.618;2024-02-04T19:20:20;0.93;;;0.80;;
27367;SDS011;14839;48.106;11.618;2024-02-04T19:22:46;0.60;;;0.60;;
27367;SDS011;14839;48.106;11.618;2024-02-04T19:25:15;1.70;;;0.93;;
27367;SDS011;14839;48.106;11.618;2024-02-04T19:30:13;1.83;;;1.07;;
27367;SDS011;14839;48.106;11.618;2024-02-04T19:32:41;1.70;;;0.87;;
27367;SDS011;14839;48.106;11.618;2024-02-04T19:35:09;1.23;;;0.67;;
27367;SDS011;14839;48.106;11.618;2024-02-04T19:37:38;2.97;;;0.90;;
27367;SDS011;14839;48.106;11.618;2024-02-04T19:40:04;0.60;;;0.50;;
27367;SDS011;14839;48.106;11.618;2024-02-04T19:42:30;1.47;;;0.60;;
27367;SDS011;14839;48.106;11.618;2024-02-04T19:44:56;2.63;;;0.77;;
27367;SDS011;14839;48.106;11.618;2024-02-04T19:47:21;1.37;;;0.50;;
27367;SDS011;14839;48.106;11.618;2024-02-04T19:49:47;2.97;;;0.37;;
27367;SDS011;14839;48.106;11.618;2024-02-04T19:52:12;0.80;;;0.50;;
27367;SDS011;14839;48.106;11.618;2024-02-04T19:54:38;2.40;;;0.60;;
27367;SDS011;14839;48.106;11.618;2024-02-04T19:57:04;2.10;;;0.50;;